Latest Weather Observations for North Head

IDN60801

Issued at 11:05 am EDT Wednesday 4 March 2015 (issued every 30 minutes, with the page automatically refreshed every 10 minutes)

About weather observations | Map of weather stations | Latest weather observations for NSW | Other Formats
Station Details ID: 066197 Name: NORTH HEAD Lat: -33.82 Lon: 151.30 Height: 90.0 m
Data from the previous 72 hours. | See also: Recent months for locations in New South Wales
Date/Time
EDT
Temp
°C
App
Temp
°C
Dew
Point
Rel
Hum
%
Delta-T
°C
Wind Press
QNH
hPa
Press
MSL
hPa
Rain
since 9 am
mm
Dir
 
Spd
km/h
Gust
km/h
Spd
kts
Gust
kts
04/11:00am - - - - - S 15 22 8 12 - - -
04/10:30am - - - - - S 15 24 8 13 - - -
04/10:00am - - - - - S 11 17 6 9 - - -
04/09:30am - - - - - SSW 7 13 4 7 - - -
04/09:00am - - - - - SW 7 13 4 7 - - -
04/08:30am - - - - - SW 7 11 4 6 - - -
04/08:00am - - - - - WSW 6 11 3 6 - - -
04/07:30am - - - - - SW 9 11 5 6 - - -
04/07:00am - - - - - SW 9 13 5 7 - - -
04/06:30am - - - - - SW 7 11 4 6 - - -
04/06:00am - - - - - SW 6 9 3 5 - - -
04/05:30am - - - - - SSW 7 13 4 7 - - -
04/05:00am - - - - - SW 6 9 3 5 - - -
04/04:30am - - - - - SW 6 9 3 5 - - -
04/04:00am - - - - - SSW 9 15 5 8 - - -
04/03:30am - - - - - SW 7 9 4 5 - - -
04/03:00am - - - - - S 9 15 5 8 - - -
04/02:30am - - - - - S 9 13 5 7 - - -
04/02:00am - - - - - S 6 7 3 4 - - -
04/01:30am - - - - - S 6 6 3 3 - - -
04/01:00am - - - - - SSE 6 6 3 3 - - -
04/12:30am - - - - - SSE 4 6 2 3 - - -
04/12:00am - - - - - S 2 4 1 2 - - -
 
Date/Time
EDT
Temp
°C
App
Temp
°C
Dew
Point
Rel
Hum
%
Delta-T
°C
Wind Press
QNH
hPa
Press
MSL
hPa
Rain
since 9 am
mm
Dir
 
Spd
km/h
Gust
km/h
Spd
kts
Gust
kts
03/11:30pm - - - - - E 2 2 1 1 - - -
03/11:00pm - - - - - CALM 0 2 0 1 - - -
03/10:30pm - - - - - ENE 6 11 3 6 - - -
03/10:00pm - - - - - ENE 7 13 4 7 - - -
03/09:30pm - - - - - ENE 7 11 4 6 - - -
03/09:00pm - - - - - ENE 9 15 5 8 - - -
03/08:30pm - - - - - NE 11 15 6 8 - - -
03/08:00pm - - - - - NE 11 15 6 8 - - -
03/07:30pm - - - - - NE 11 17 6 9 - - -
03/07:00pm - - - - - NNE 13 19 7 10 - - -
03/06:30pm - - - - - NE 15 22 8 12 - - -
03/06:00pm - - - - - NE 15 22 8 12 - - -
03/05:30pm - - - - - NE 17 24 9 13 - - -
03/05:00pm - - - - - ENE 15 20 8 11 - - -
03/04:30pm - - - - - ENE 17 24 9 13 - - -
03/04:00pm - - - - - ENE 19 28 10 15 - - -
03/03:30pm - - - - - ENE 20 30 11 16 - - -
03/03:00pm - - - - - ENE 19 28 10 15 - - -
03/02:30pm - - - - - NE 20 32 11 17 - - -
03/02:00pm - - - - - ENE 17 26 9 14 - - -
03/01:30pm - - - - - ENE 17 24 9 13 - - -
03/01:00pm - - - - - ENE 13 24 7 13 - - -
03/12:30pm - - - - - ENE 13 20 7 11 - - -
03/12:00pm - - - - - NE 13 20 7 11 - - -
03/11:30am - - - - - NE 11 19 6 10 - - -
03/11:00am - - - - - NNE 13 17 7 9 - - -
03/10:30am - - - - - NNE 11 17 6 9 - - -
03/10:00am - - - - - NNW 11 22 6 12 - - -
03/09:30am - - - - - NNW 11 19 6 10 - - -
03/09:00am - - - - - N 7 15 4 8 - - -
03/08:30am - - - - - NNW 7 13 4 7 - - -
03/08:00am - - - - - NW 7 9 4 5 - - -
03/07:30am - - - - - NW 9 11 5 6 - - -
03/07:00am - - - - - NW 9 13 5 7 - - -
03/06:30am - - - - - NW 9 11 5 6 - - -
03/06:00am - - - - - WNW 6 7 3 4 - - -
03/05:30am - - - - - WNW 7 7 4 4 - - -
03/05:00am - - - - - WNW 9 9 5 5 - - -
03/04:30am - - - - - WNW 7 9 4 5 - - -
03/04:00am - - - - - NNW 6 7 3 4 - - -
03/03:30am - - - - - NW 6 7 3 4 - - -
03/03:00am - - - - - NNW 6 7 3 4 - - -
03/02:30am - - - - - NW 6 7 3 4 - - -
03/02:00am - - - - - WNW 6 6 3 3 - - -
03/01:30am - - - - - NW 6 7 3 4 - - -
03/01:00am - - - - - NNW 6 7 3 4 - - -
03/12:30am - - - - - NNW 6 6 3 3 - - -
03/12:00am - - - - - NNW 6 7 3 4 - - -
 
Date/Time
EDT
Temp
°C
App
Temp
°C
Dew
Point
Rel
Hum
%
Delta-T
°C
Wind Press
QNH
hPa
Press
MSL
hPa
Rain
since 9 am
mm
Dir
 
Spd
km/h
Gust
km/h
Spd
kts
Gust
kts
02/11:30pm - - - - - N 7 13 4 7 - - -
02/11:00pm - - - - - NNE 9 15 5 8 - - -
02/10:30pm - - - - - NNE 11 17 6 9 - - -
02/10:00pm - - - - - NNE 11 19 6 10 - - -
02/09:30pm - - - - - NE 13 19 7 10 - - -
02/09:00pm - - - - - NE 11 15 6 8 - - -
02/08:30pm - - - - - ENE 9 17 5 9 - - -
02/08:00pm - - - - - ENE 9 19 5 10 - - -
02/07:30pm - - - - - E 11 17 6 9 - - -
02/07:00pm - - - - - E 9 15 5 8 - - -
02/06:30pm - - - - - E 9 15 5 8 - - -
02/06:00pm - - - - - E 9 17 5 9 - - -
02/05:30pm - - - - - ESE 11 19 6 10 - - -
02/05:00pm - - - - - E 13 20 7 11 - - -
02/04:30pm - - - - - E 15 19 8 10 - - -
02/04:00pm - - - - - ESE 15 20 8 11 - - -
02/03:30pm - - - - - ESE 13 19 7 10 - - -
02/03:00pm - - - - - SSE 13 20 7 11 - - -
02/02:30pm - - - - - S 20 28 11 15 - - -
02/02:00pm - - - - - S 19 28 10 15 - - -
02/01:30pm - - - - - S 20 30 11 16 - - -
02/01:00pm - - - - - S 17 26 9 14 - - -
02/12:30pm - - - - - S 17 26 9 14 - - -
02/12:00pm - - - - - S 17 28 9 15 - - -
02/11:30am - - - - - S 20 32 11 17 - - -
02/11:00am - - - - - S 20 30 11 16 - - -
02/10:30am - - - - - S 17 26 9 14 - - -
02/10:00am - - - - - SSW 15 28 8 15 - - -
02/09:30am - - - - - SSW 17 26 9 14 - - -
02/09:00am - - - - - SSW 17 30 9 16 - - -
02/08:30am - - - - - SW 15 26 8 14 - - -
02/08:00am - - - - - SW 11 17 6 9 - - -
02/07:30am - - - - - SW 15 24 8 13 - - -
02/07:00am - - - - - SW 17 24 9 13 - - -
02/06:30am - - - - - SW 17 24 9 13 - - -
02/06:00am - - - - - SW 19 30 10 16 - - -
02/05:30am - - - - - SW 20 28 11 15 - - -
02/05:00am - - - - - SW 15 22 8 12 - - -
02/04:30am - - - - - SSW 17 33 9 18 - - -
02/04:00am - - - - - S 22 33 12 18 - - -
02/03:30am - - - - - SSE 24 35 13 19 - - -
02/03:00am - - - - - SSE 26 37 14 20 - - -
02/02:30am - - - - - SSE 24 39 13 21 - - -
02/02:00am - - - - - SSE 26 43 14 23 - - -
02/01:30am - - - - - SSE 28 43 15 23 - - -
02/01:00am - - - - - SSE 35 50 19 27 - - -
02/12:30am - - - - - S 32 50 17 27 - - -
02/12:12am - - - - - SSE 32 50 17 27 - - -
02/12:00am - - - - - SSE 35 50 19 27 - - -
 
Date/Time
EDT
Temp
°C
App
Temp
°C
Dew
Point
Rel
Hum
%
Delta-T
°C
Wind Press
QNH
hPa
Press
MSL
hPa
Rain
since 9 am
mm
Dir
 
Spd
km/h
Gust
km/h
Spd
kts
Gust
kts
01/11:39pm - - - - - SSE 33 54 18 29 - - -
01/11:30pm - - - - - SSE 35 50 19 27 - - -
01/11:00pm - - - - - SSE 33 54 18 29 - - -
01/10:30pm - - - - - SSE 35 54 19 29 - - -
01/10:00pm - - - - - S 37 56 20 30 - - -
01/09:30pm - - - - - SSE 39 59 21 32 - - -
01/09:00pm - - - - - SSE 41 61 22 33 - - -
01/08:30pm - - - - - SSE 44 63 24 34 - - -
01/08:01pm - - - - - SSE 39 57 21 31 - - -
01/08:00pm - - - - - SSE 41 57 22 31 - - -
01/07:31pm - - - - - S 39 59 21 32 - - -
01/07:30pm - - - - - S 41 59 22 32 - - -
01/07:00pm - - - - - S 39 57 21 31 - - -
01/06:30pm - - - - - S 39 59 21 32 - - -
01/06:06pm - - - - - S 35 56 19 30 - - -
01/06:00pm - - - - - S 35 52 19 28 - - -
01/05:30pm - - - - - S 35 57 19 31 - - -
01/05:15pm - - - - - S 28 50 15 27 - - -
01/05:00pm - - - - - SW 24 41 13 22 - - -
01/04:30pm - - - - - S 33 54 18 29 - - -
01/04:01pm - - - - - SSW 32 82 17 44 - - -
01/04:00pm - - - - - SSW 28 61 15 33 - - -
01/03:56pm - - - - - N 24 59 13 32 - - -
01/03:54pm - - - - - N 20 56 11 30 - - -
01/03:30pm - - - - - NNE 20 28 11 15 - - -
01/03:00pm - - - - - NNE 22 32 12 17 - - -
01/02:30pm - - - - - NNE 20 30 11 16 - - -
01/02:00pm - - - - - NNE 17 26 9 14 - - -
01/01:30pm - - - - - NNE 15 22 8 12 - - -
01/01:00pm - - - - - NNE 17 24 9 13 - - -
01/12:30pm - - - - - NNE 13 20 7 11 - - -
01/12:00pm - - - - - N 13 17 7 9 - - -
01/11:30am - - - - - N 13 20 7 11 - - -

Other Formats:

Comma delimited format used in spreadsheet applications
http://www.bom.gov.au/fwo/IDN60801/IDN60801.95768.axf

JavaScript Object Notation format (JSON) in row-major order
http://www.bom.gov.au/fwo/IDN60801/IDN60801.95768.json